Time,TemperatureF,DewpointF,PressureIn,WindDirection,WindDirectionDegrees,WindSpeedMPH,WindSpeedGustMPH,Humidity,HourlyPrecipIn,Conditions,Clouds,dailyrainin,SoftwareType,DateUTC
2013-05-30 00:02:00,59.3,57.9,29.86,ENE,78,0.0,1.0,95,0.00,,,0.00,Wunderground v.1.15,2013-05-30 05:02:00,
2013-05-30 00:08:00,58.8,57.4,29.87,SE,136,0.0,1.0,95,0.00,,,0.00,Wunderground v.1.15,2013-05-30 05:08:00,
2013-05-30 00:14:00,58.5,57.4,29.87,SE,136,0.0,0.0,96,0.00,,,0.00,Wunderground v.1.15,2013-05-30 05:14:00,
2013-05-30 00:20:00,58.5,57.4,29.88,ESE,110,0.0,0.0,96,0.00,,,0.00,Wunderground v.1.15,2013-05-30 05:20:00,
2013-05-30 00:26:00,58.6,57.5,29.88,SE,134,0.0,1.0,96,0.00,,,0.00,Wunderground v.1.15,2013-05-30 05:26:00,
2013-05-30 00:32:00,58.7,57.6,29.87,ESE,120,0.0,0.0,96,0.00,,,0.00,Wunderground v.1.15,2013-05-30 05:32:00,
2013-05-30 00:38:00,58.6,57.5,29.87,SSE,148,0.0,0.0,96,0.00,,,0.00,Wunderground v.1.15,2013-05-30 05:38:00,
2013-05-30 00:44:00,58.3,57.2,29.87,ENE,77,0.0,0.0,96,0.00,,,0.00,Wunderground v.1.15,2013-05-30 05:44:00,
2013-05-30 00:50:00,58.4,57.3,29.87,SSE,149,0.0,0.0,96,0.00,,,0.00,Wunderground v.1.15,2013-05-30 05:50:00,
2013-05-30 00:56:00,58.8,58.0,29.87,SE,145,0.0,0.0,97,0.00,,,0.00,Wunderground v.1.15,2013-05-30 05:56:00,
2013-05-30 01:02:00,59.1,58.2,29.87,SE,136,0.0,1.0,97,0.00,,,0.00,Wunderground v.1.15,2013-05-30 06:02:00,
2013-05-30 01:08:00,59.5,58.6,29.87,ENE,61,0.0,1.0,97,0.00,,,0.00,Wunderground v.1.15,2013-05-30 06:08:00,
2013-05-30 01:14:00,59.6,58.7,29.87,East,94,0.0,0.0,97,0.00,,,0.00,Wunderground v.1.15,2013-05-30 06:14:00,
2013-05-30 01:20:00,59.4,58.3,29.87,SE,125,0.0,0.0,96,0.00,,,0.00,Wunderground v.1.15,2013-05-30 06:20:00,
2013-05-30 01:26:00,59.2,58.1,29.87,ENE,73,0.0,0.0,96,0.00,,,0.00,Wunderground v.1.15,2013-05-30 06:26:00,
2013-05-30 01:32:00,59.2,58.1,29.87,SSE,153,0.0,0.0,96,0.00,,,0.00,Wunderground v.1.15,2013-05-30 06:32:00,
2013-05-30 01:38:00,59.3,58.4,29.87,SE,139,0.0,0.0,97,0.00,,,0.00,Wunderground v.1.15,2013-05-30 06:38:00,
2013-05-30 01:44:00,59.6,58.7,29.87,SE,139,0.0,1.0,97,0.00,,,0.00,Wunderground v.1.15,2013-05-30 06:44:00,
2013-05-30 01:50:00,60.0,59.1,29.87,SE,131,0.0,0.0,97,0.00,,,0.00,Wunderground v.1.15,2013-05-30 06:50:00,
2013-05-30 01:56:00,60.2,59.3,29.87,SSE,150,0.0,2.0,97,0.00,,,0.00,Wunderground v.1.15,2013-05-30 06:56:00,
2013-05-30 02:02:00,60.4,59.5,29.87,SE,141,0.0,1.0,97,0.00,,,0.00,Wunderground v.1.15,2013-05-30 07:02:00,
2013-05-30 02:08:00,60.5,59.6,29.87,SE,141,0.0,1.0,97,0.00,,,0.00,Wunderground v.1.15,2013-05-30 07:08:00,
2013-05-30 02:14:00,60.5,59.6,29.86,SE,133,1.0,1.0,97,0.00,,,0.00,Wunderground v.1.15,2013-05-30 07:14:00,
2013-05-30 02:20:00,60.3,59.2,29.86,SE,126,0.0,0.0,96,0.00,,,0.00,Wunderground v.1.15,2013-05-30 07:20:00,
2013-05-30 02:26:00,60.3,59.2,29.86,SE,127,0.0,0.0,96,0.00,,,0.00,Wunderground v.1.15,2013-05-30 07:26:00,
2013-05-30 02:32:00,60.1,59.0,29.86,SE,127,0.0,0.0,96,0.00,,,0.00,Wunderground v.1.15,2013-05-30 07:32:00,
2013-05-30 02:38:00,60.0,58.9,29.86,SSE,152,0.0,0.0,96,0.00,,,0.00,Wunderground v.1.15,2013-05-30 07:38:00,
2013-05-30 02:44:00,60.0,58.9,29.86,SSE,149,0.0,0.0,96,0.00,,,0.00,Wunderground v.1.15,2013-05-30 07:44:00,
2013-05-30 02:50:00,60.1,59.0,29.86,SSE,150,0.0,0.0,96,0.00,,,0.00,Wunderground v.1.15,2013-05-30 07:50:00,
2013-05-30 02:56:00,60.2,59.3,29.86,SSE,154,0.0,0.0,97,0.00,,,0.00,Wunderground v.1.15,2013-05-30 07:56:00,
2013-05-30 03:02:00,60.2,59.3,29.86,SSE,149,0.0,0.0,97,0.00,,,0.00,Wunderground v.1.15,2013-05-30 08:02:00,
2013-05-30 03:08:00,60.1,59.0,29.86,SSE,149,0.0,0.0,96,0.00,,,0.00,Wunderground v.1.15,2013-05-30 08:08:00,
2013-05-30 03:14:00,60.1,59.0,29.86,SSE,149,0.0,0.0,96,0.00,,,0.00,Wunderground v.1.15,2013-05-30 08:14:00,
2013-05-30 03:20:00,60.1,59.0,29.86,East,91,0.0,0.0,96,0.00,,,0.00,Wunderground v.1.15,2013-05-30 08:20:00,
2013-05-30 03:26:00,60.2,59.3,29.85,East,94,0.0,0.0,97,0.00,,,0.00,Wunderground v.1.15,2013-05-30 08:26:00,
2013-05-30 03:32:00,60.2,59.3,29.85,East,79,0.0,0.0,97,0.00,,,0.00,Wunderground v.1.15,2013-05-30 08:32:00,
2013-05-30 03:38:00,60.2,59.3,29.86,SSE,149,0.0,0.0,97,0.00,,,0.00,Wunderground v.1.15,2013-05-30 08:38:00,
2013-05-30 03:44:00,60.5,59.6,29.86,SE,140,0.0,0.0,97,0.00,,,0.00,Wunderground v.1.15,2013-05-30 08:44:00,
2013-05-30 03:50:00,60.6,59.7,29.86,East,86,0.0,0.0,97,0.00,,,0.00,Wunderground v.1.15,2013-05-30 08:50:00,
2013-05-30 03:56:00,60.6,59.7,29.86,East,84,0.0,1.0,97,0.00,,,0.00,Wunderground v.1.15,2013-05-30 08:56:00,
2013-05-30 04:02:00,60.6,59.7,29.86,SE,145,0.0,0.0,97,0.00,,,0.00,Wunderground v.1.15,2013-05-30 09:02:00,
2013-05-30 04:08:00,60.6,59.7,29.86,SE,145,0.0,0.0,97,0.00,,,0.00,Wunderground v.1.15,2013-05-30 09:08:00,
2013-05-30 04:14:00,60.4,59.3,29.86,SE,145,0.0,0.0,96,0.00,,,0.00,Wunderground v.1.15,2013-05-30 09:14:00,
2013-05-30 04:20:00,60.5,59.6,29.86,SE,145,0.0,0.0,97,0.00,,,0.00,Wunderground v.1.15,2013-05-30 09:20:00,
2013-05-30 04:26:00,60.4,59.5,29.86,SSE,153,0.0,0.0,97,0.00,,,0.00,Wunderground v.1.15,2013-05-30 09:26:00,
2013-05-30 04:32:00,60.4,59.5,29.86,SE,132,0.0,0.0,97,0.00,,,0.00,Wunderground v.1.15,2013-05-30 09:32:00,
2013-05-30 04:38:00,60.4,59.5,29.86,SE,136,0.0,0.0,97,0.00,,,0.00,Wunderground v.1.15,2013-05-30 09:38:00,
2013-05-30 04:44:00,60.4,59.5,29.86,SSE,152,0.0,0.0,97,0.00,,,0.00,Wunderground v.1.15,2013-05-30 09:44:00,
2013-05-30 04:50:00,60.4,59.5,29.86,ENE,73,0.0,0.0,97,0.00,,,0.00,Wunderground v.1.15,2013-05-30 09:50:00,
2013-05-30 04:56:00,60.3,59.4,29.86,East,100,0.0,0.0,97,0.00,,,0.00,Wunderground v.1.15,2013-05-30 09:56:00,
2013-05-30 05:02:00,60.4,59.5,29.86,SSE,149,0.0,0.0,97,0.00,,,0.00,Wunderground v.1.15,2013-05-30 10:02:00,
2013-05-30 05:08:00,60.4,59.5,29.87,SE,141,0.0,0.0,97,0.00,,,0.00,Wunderground v.1.15,2013-05-30 10:08:00,
2013-05-30 05:14:00,60.5,59.6,29.86,SSE,153,0.0,2.0,97,0.00,,,0.00,Wunderground v.1.15,2013-05-30 10:14:00,
2013-05-30 05:20:00,60.6,59.7,29.86,SE,138,0.0,0.0,97,0.00,,,0.00,Wunderground v.1.15,2013-05-30 10:20:00,
2013-05-30 05:26:00,60.9,60.0,29.87,SSE,148,0.0,1.0,97,0.00,,,0.00,Wunderground v.1.15,2013-05-30 10:26:00,
2013-05-30 05:32:00,61.0,60.1,29.87,SE,125,0.0,0.0,97,0.00,,,0.00,Wunderground v.1.15,2013-05-30 10:32:00,
2013-05-30 05:38:00,61.0,60.1,29.87,SSE,152,0.0,0.0,97,0.00,,,0.00,Wunderground v.1.15,2013-05-30 10:38:00,
2013-05-30 05:44:00,60.9,60.0,29.87,ESE,111,0.0,0.0,97,0.00,,,0.00,Wunderground v.1.15,2013-05-30 10:44:00,
2013-05-30 05:50:00,60.9,60.0,29.87,SE,142,0.0,0.0,97,0.00,,,0.00,Wunderground v.1.15,2013-05-30 10:50:00,
2013-05-30 05:56:00,61.2,60.3,29.87,SE,141,0.0,0.0,97,0.00,,,0.00,Wunderground v.1.15,2013-05-30 10:56:00,
2013-05-30 06:02:00,61.4,60.5,29.87,SE,134,0.0,0.0,97,0.00,,,0.00,Wunderground v.1.15,2013-05-30 11:02:00,
2013-05-30 06:14:00,61.7,60.8,29.87,East,82,0.0,0.0,97,0.00,,,0.00,Wunderground v.1.15,2013-05-30 11:14:00,
2013-05-30 06:20:00,62.1,61.2,29.87,SSE,151,0.0,2.0,97,0.00,,,0.00,Wunderground v.1.15,2013-05-30 11:20:00,
2013-05-30 06:26:00,62.4,61.5,29.87,ESE,120,0.0,0.0,97,0.00,,,0.00,Wunderground v.1.15,2013-05-30 11:26:00,
2013-05-30 06:34:00,63.1,62.2,29.86,SE,139,0.0,1.0,97,0.00,,,0.00,Wunderground v.1.15,2013-05-30 11:34:00,
2013-05-30 06:40:00,63.4,62.5,29.86,SE,138,0.0,1.0,97,0.00,,,0.00,Wunderground v.1.15,2013-05-30 11:40:00,
2013-05-30 06:46:00,63.5,62.6,29.86,South,170,0.0,2.0,97,0.00,,,0.00,Wunderground v.1.15,2013-05-30 11:46:00,
2013-05-30 06:52:00,63.7,62.5,29.86,ENE,66,0.0,2.0,96,0.00,,,0.00,Wunderground v.1.15,2013-05-30 11:52:00,
2013-05-30 06:58:00,64.0,62.8,29.86,SE,135,1.0,1.0,96,0.00,,,0.00,Wunderground v.1.15,2013-05-30 11:58:00,
2013-05-30 07:04:00,64.3,63.1,29.86,ENE,78,0.0,1.0,96,0.00,,,0.00,Wunderground v.1.15,2013-05-30 12:04:00,
2013-05-30 07:10:00,64.6,63.4,29.86,SE,124,0.0,0.0,96,0.00,,,0.00,Wunderground v.1.15,2013-05-30 12:10:00,
2013-05-30 07:16:00,65.0,63.8,29.87,SE,134,0.0,1.0,96,0.00,,,0.00,Wunderground v.1.15,2013-05-30 12:16:00,
2013-05-30 07:22:00,65.3,63.8,29.87,SE,131,1.0,1.0,95,0.00,,,0.00,Wunderground v.1.15,2013-05-30 12:22:00,
2013-05-30 07:28:00,65.6,64.1,29.86,SE,135,1.0,1.0,95,0.00,,,0.00,Wunderground v.1.15,2013-05-30 12:28:00,
2013-05-30 07:34:00,66.0,64.5,29.86,ENE,66,0.0,1.0,95,0.00,,,0.00,Wunderground v.1.15,2013-05-30 12:34:00,
2013-05-30 07:40:00,66.3,64.5,29.87,SE,131,0.0,0.0,94,0.00,,,0.00,Wunderground v.1.15,2013-05-30 12:40:00,
2013-05-30 07:46:00,66.7,64.6,29.87,ENE,72,0.0,1.0,93,0.00,,,0.00,Wunderground v.1.15,2013-05-30 12:46:00,
2013-05-30 07:52:00,67.3,65.2,29.87,SE,145,0.0,0.0,93,0.00,,,0.00,Wunderground v.1.15,2013-05-30 12:52:00,
2013-05-30 07:58:00,68.0,65.3,29.86,ENE,61,0.0,2.0,91,0.00,,,0.00,Wunderground v.1.15,2013-05-30 12:58:00,
2013-05-30 08:04:00,69.1,66.0,29.86,East,79,1.0,1.0,90,0.00,,,0.00,Wunderground v.1.15,2013-05-30 13:04:00,
2013-05-30 08:10:00,70.7,67.0,29.86,SSE,155,1.0,3.0,88,0.00,,,0.00,Wunderground v.1.15,2013-05-30 13:10:00,
2013-05-30 08:16:00,72.2,67.4,29.86,SSE,150,1.0,3.0,85,0.00,,,0.00,Wunderground v.1.15,2013-05-30 13:16:00,
2013-05-30 08:22:00,73.4,67.2,29.86,South,172,1.0,2.0,81,0.00,,,0.00,Wunderground v.1.15,2013-05-30 13:22:00,
2013-05-30 08:28:00,74.3,67.4,29.86,SSE,155,1.0,2.0,79,0.00,,,0.00,Wunderground v.1.15,2013-05-30 13:28:00,
2013-05-30 08:34:00,74.8,67.1,29.86,SE,130,1.0,2.0,77,0.00,,,0.00,Wunderground v.1.15,2013-05-30 13:34:00,
2013-05-30 08:40:00,75.3,66.8,29.87,North,349,1.0,2.0,75,0.00,,,0.00,Wunderground v.1.15,2013-05-30 13:40:00,
2013-05-30 08:46:00,75.7,67.2,29.87,NW,304,1.0,2.0,75,0.00,,,0.00,Wunderground v.1.15,2013-05-30 13:46:00,
2013-05-30 08:52:00,75.9,66.6,29.87,SSW,205,1.0,1.0,73,0.00,,,0.00,Wunderground v.1.15,2013-05-30 13:52:00,
2013-05-30 08:58:00,76.2,66.9,29.87,SE,132,1.0,1.0,73,0.00,,,0.00,Wunderground v.1.15,2013-05-30 13:58:00,
2013-05-30 09:04:00,76.3,67.0,29.87,SSW,203,1.0,4.0,73,0.00,,,0.00,Wunderground v.1.15,2013-05-30 14:04:00,
2013-05-30 09:10:00,76.6,66.9,29.87,SE,135,1.0,1.0,72,0.00,,,0.00,Wunderground v.1.15,2013-05-30 14:10:00,
2013-05-30 09:16:00,76.9,67.2,29.87,SW,228,1.0,1.0,72,0.00,,,0.00,Wunderground v.1.15,2013-05-30 14:16:00,
2013-05-30 09:22:00,77.2,66.7,29.87,WNW,284,2.0,2.0,70,0.00,,,0.00,Wunderground v.1.15,2013-05-30 14:22:00,
2013-05-30 09:28:00,77.5,66.9,29.86,SE,138,1.0,2.0,70,0.00,,,0.00,Wunderground v.1.15,2013-05-30 14:28:00,
2013-05-30 09:34:00,77.8,66.8,29.87,SW,226,1.0,2.0,69,0.00,,,0.00,Wunderground v.1.15,2013-05-30 14:34:00,
2013-05-30 09:40:00,78.1,67.1,29.87,WSW,256,2.0,2.0,69,0.00,,,0.00,Wunderground v.1.15,2013-05-30 14:40:00,
2013-05-30 09:46:00,78.3,67.3,29.87,North,11,2.0,4.0,69,0.00,,,0.00,Wunderground v.1.15,2013-05-30 14:46:00,
2013-05-30 09:52:00,78.6,67.2,29.87,SW,233,2.0,3.0,68,0.00,,,0.00,Wunderground v.1.15,2013-05-30 14:52:00,
2013-05-30 09:58:00,78.9,67.0,29.87,South,186,1.0,5.0,67,0.00,,,0.00,Wunderground v.1.15,2013-05-30 14:58:00,
2013-05-30 10:04:00,79.2,67.3,29.86,SE,136,1.0,1.0,67,0.00,,,0.00,Wunderground v.1.15,2013-05-30 15:04:00,
2013-05-30 10:10:00,79.5,67.1,29.87,SE,131,2.0,2.0,66,0.00,,,0.00,Wunderground v.1.15,2013-05-30 15:10:00,
2013-05-30 10:16:00,79.5,66.7,29.87,WSW,252,2.0,2.0,65,0.00,,,0.00,Wunderground v.1.15,2013-05-30 15:16:00,
2013-05-30 10:22:00,80.0,67.2,29.87,NW,307,1.0,2.0,65,0.00,,,0.00,Wunderground v.1.15,2013-05-30 15:22:00,
2013-05-30 10:28:00,80.1,67.3,29.86,East,86,1.0,2.0,65,0.00,,,0.00,Wunderground v.1.15,2013-05-30 15:28:00,
2013-05-30 10:34:00,80.4,67.6,29.86,ESE,113,1.0,4.0,65,0.00,,,0.00,Wunderground v.1.15,2013-05-30 15:34:00,
2013-05-30 10:40:00,80.1,66.8,29.86,South,170,2.0,2.0,64,0.00,,,0.00,Wunderground v.1.15,2013-05-30 15:40:00,
2013-05-30 10:46:00,79.9,68.0,29.86,SSW,198,2.0,2.0,67,0.00,,,0.00,Wunderground v.1.15,2013-05-30 15:46:00,
2013-05-30 10:52:00,80.1,67.7,29.86,East,83,1.0,3.0,66,0.00,,,0.00,Wunderground v.1.15,2013-05-30 15:52:00,
2013-05-30 10:58:00,80.9,67.6,29.86,South,191,1.0,5.0,64,0.00,,,0.00,Wunderground v.1.15,2013-05-30 15:58:00,
2013-05-30 11:04:00,81.3,68.0,29.86,South,173,1.0,2.0,64,0.00,,,0.00,Wunderground v.1.15,2013-05-30 16:04:00,
2013-05-30 11:10:00,81.7,67.4,29.86,ESE,120,1.0,1.0,62,0.00,,,0.00,Wunderground v.1.15,2013-05-30 16:10:00,
2013-05-30 11:16:00,82.0,67.2,29.86,SSE,160,1.0,5.0,61,0.00,,,0.00,Wunderground v.1.15,2013-05-30 16:16:00,
2013-05-30 11:22:00,82.0,67.7,29.86,WSW,249,2.0,3.0,62,0.00,,,0.00,Wunderground v.1.15,2013-05-30 16:22:00,
2013-05-30 11:28:00,82.4,67.6,29.86,NW,325,2.0,3.0,61,0.00,,,0.00,Wunderground v.1.15,2013-05-30 16:28:00,
2013-05-30 11:34:00,82.7,67.4,29.86,SSE,160,1.0,2.0,60,0.00,,,0.00,Wunderground v.1.15,2013-05-30 16:34:00,
2013-05-30 11:40:00,83.2,67.9,29.86,WSW,252,1.0,1.0,60,0.00,,,0.00,Wunderground v.1.15,2013-05-30 16:40:00,
2013-05-30 11:46:00,83.7,68.3,29.85,SSE,148,1.0,3.0,60,0.00,,,0.00,Wunderground v.1.15,2013-05-30 16:46:00,
2013-05-30 11:52:00,83.9,68.0,29.85,SE,139,1.0,1.0,59,0.00,,,0.00,Wunderground v.1.15,2013-05-30 16:52:00,
2013-05-30 11:58:00,84.3,69.4,29.85,ESE,115,1.0,7.0,61,0.00,,,0.00,Wunderground v.1.15,2013-05-30 16:58:00,
2013-05-30 12:04:00,84.8,67.9,29.85,SW,225,1.0,2.0,57,0.00,,,0.00,Wunderground v.1.15,2013-05-30 17:04:00,
2013-05-30 12:10:00,84.8,67.9,29.85,East,97,2.0,2.0,57,0.00,,,0.00,Wunderground v.1.15,2013-05-30 17:10:00,
2013-05-30 12:16:00,84.8,67.4,29.85,SE,140,3.0,3.0,56,0.00,,,0.00,Wunderground v.1.15,2013-05-30 17:16:00,
2013-05-30 12:22:00,85.1,68.2,29.84,SSE,158,2.0,2.0,57,0.00,,,0.00,Wunderground v.1.15,2013-05-30 17:22:00,
2013-05-30 12:28:00,85.7,68.7,29.84,SE,141,1.0,3.0,57,0.00,,,0.00,Wunderground v.1.15,2013-05-30 17:28:00,
2013-05-30 12:34:00,86.1,68.6,29.84,ENE,77,2.0,4.0,56,0.00,,,0.00,Wunderground v.1.15,2013-05-30 17:34:00,
2013-05-30 12:40:00,85.8,67.2,29.84,East,80,2.0,2.0,54,0.00,,,0.00,Wunderground v.1.15,2013-05-30 17:40:00,
2013-05-30 12:46:00,86.1,69.1,29.84,West,278,2.0,2.0,57,0.00,,,0.00,Wunderground v.1.15,2013-05-30 17:46:00,
2013-05-30 12:52:00,85.9,67.9,29.83,NNE,14,2.0,2.0,55,0.00,,,0.00,Wunderground v.1.15,2013-05-30 17:52:00,
2013-05-30 12:58:00,86.0,67.4,29.84,SE,134,2.0,3.0,54,0.00,,,0.00,Wunderground v.1.15,2013-05-30 17:58:00,
2013-05-30 13:04:00,86.4,67.2,29.83,SE,143,2.0,2.0,53,0.00,,,0.00,Wunderground v.1.15,2013-05-30 18:04:00,
2013-05-30 13:10:00,86.0,65.2,29.84,West,266,2.0,2.0,50,0.00,,,0.00,Wunderground v.1.15,2013-05-30 18:10:00,
2013-05-30 13:16:00,81.4,64.2,29.84,WNW,286,1.0,2.0,56,0.00,,,0.00,Wunderground v.1.15,2013-05-30 18:16:00,
2013-05-30 13:22:00,79.2,64.6,29.83,NE,42,1.0,1.0,61,0.00,,,0.00,Wunderground v.1.15,2013-05-30 18:22:00,
2013-05-30 13:28:00,78.0,63.5,29.83,NE,38,1.0,2.0,61,0.00,,,0.00,Wunderground v.1.15,2013-05-30 18:28:00,
2013-05-30 13:34:00,77.0,65.6,29.83,West,281,1.0,1.0,68,0.00,,,0.00,Wunderground v.1.15,2013-05-30 18:34:00,
2013-05-30 13:40:00,77.5,66.1,29.83,NW,315,1.0,2.0,68,0.00,,,0.00,Wunderground v.1.15,2013-05-30 18:40:00,
2013-05-30 13:46:00,78.5,66.2,29.83,WNW,290,1.0,2.0,66,0.00,,,0.00,Wunderground v.1.15,2013-05-30 18:46:00,
2013-05-30 13:52:00,78.2,65.9,29.82,NNE,23,1.0,2.0,66,0.00,,,0.00,Wunderground v.1.15,2013-05-30 18:52:00,
2013-05-30 13:58:00,78.6,66.3,29.82,WNW,291,1.0,3.0,66,0.00,,,0.00,Wunderground v.1.15,2013-05-30 18:58:00,
2013-05-30 14:04:00,78.9,65.7,29.81,West,276,1.0,1.0,64,0.00,,,0.00,Wunderground v.1.15,2013-05-30 19:04:00,
2013-05-30 14:10:00,78.8,66.0,29.81,WNW,291,1.0,3.0,65,0.00,,,0.00,Wunderground v.1.15,2013-05-30 19:10:00,
2013-05-30 14:16:00,79.2,66.9,29.81,NE,55,1.0,3.0,66,0.00,,,0.00,Wunderground v.1.15,2013-05-30 19:16:00,
2013-05-30 14:22:00,80.0,65.8,29.81,WNW,291,1.0,2.0,62,0.00,,,0.00,Wunderground v.1.15,2013-05-30 19:22:00,
2013-05-30 14:28:00,80.4,66.6,29.80,West,266,1.0,2.0,63,0.00,,,0.00,Wunderground v.1.15,2013-05-30 19:28:00,
2013-05-30 14:34:00,80.9,67.6,29.80,WNW,298,1.0,1.0,64,0.00,,,0.00,Wunderground v.1.15,2013-05-30 19:34:00,
2013-05-30 14:40:00,80.7,66.5,29.80,ENE,64,1.0,1.0,62,0.00,,,0.00,Wunderground v.1.15,2013-05-30 19:40:00,
2013-05-30 14:46:00,78.2,64.1,29.81,North,358,2.0,2.0,62,0.00,,,0.00,Wunderground v.1.15,2013-05-30 19:46:00,
2013-05-30 14:52:00,74.5,62.4,29.82,West,278,2.0,2.0,66,0.00,,,0.00,Wunderground v.1.15,2013-05-30 19:52:00,
2013-05-30 14:58:00,72.1,62.2,29.82,WNW,301,1.0,3.0,71,0.00,,,0.00,Wunderground v.1.15,2013-05-30 19:58:00,
2013-05-30 15:04:00,70.7,61.6,29.81,West,281,1.0,2.0,73,0.00,,,0.00,Wunderground v.1.15,2013-05-30 20:04:00,
2013-05-30 15:10:00,70.6,63.4,29.81,WNW,291,0.0,1.0,78,0.00,,,0.00,Wunderground v.1.15,2013-05-30 20:10:00,
2013-05-30 15:16:00,69.1,61.2,29.81,WNW,284,1.0,1.0,76,0.00,,,0.00,Wunderground v.1.15,2013-05-30 20:16:00,
2013-05-30 15:22:00,69.0,62.9,29.81,WNW,284,0.0,1.0,81,0.00,,,0.00,Wunderground v.1.15,2013-05-30 20:22:00,
2013-05-30 15:28:00,70.5,64.0,29.80,NE,51,0.0,1.0,80,0.00,,,0.00,Wunderground v.1.15,2013-05-30 20:28:00,
2013-05-30 15:34:00,70.4,62.5,29.80,WNW,287,0.0,2.0,76,0.00,,,0.00,Wunderground v.1.15,2013-05-30 20:34:00,
2013-05-30 15:40:00,72.0,64.8,29.80,WNW,287,0.0,0.0,78,0.00,,,0.00,Wunderground v.1.15,2013-05-30 20:40:00,
2013-05-30 15:46:00,73.7,64.9,29.79,North,356,0.0,0.0,74,0.00,,,0.00,Wunderground v.1.15,2013-05-30 20:46:00,
2013-05-30 15:52:00,75.5,66.2,29.79,NW,318,0.0,0.0,73,0.00,,,0.00,Wunderground v.1.15,2013-05-30 20:52:00,
2013-05-30 15:58:00,77.2,67.9,29.78,SE,134,0.0,4.0,73,0.00,,,0.00,Wunderground v.1.15,2013-05-30 20:58:00,
2013-05-30 16:04:00,78.6,68.4,29.78,SE,132,1.0,3.0,71,0.00,,,0.00,Wunderground v.1.15,2013-05-30 21:04:00,
2013-05-30 16:10:00,79.0,68.0,29.78,SE,139,2.0,2.0,69,0.00,,,0.00,Wunderground v.1.15,2013-05-30 21:10:00,
2013-05-30 16:16:00,79.7,68.6,29.79,WNW,291,1.0,3.0,69,0.00,,,0.00,Wunderground v.1.15,2013-05-30 21:16:00,
2013-05-30 16:22:00,76.1,63.0,29.79,WNW,288,1.0,3.0,64,0.00,,,0.00,Wunderground v.1.15,2013-05-30 21:22:00,
2013-05-30 16:28:00,74.1,63.7,29.80,NE,50,1.0,3.0,70,0.00,,,0.00,Wunderground v.1.15,2013-05-30 21:28:00,
2013-05-30 16:34:00,73.4,63.8,29.80,West,280,0.0,1.0,72,0.00,,,0.00,Wunderground v.1.15,2013-05-30 21:34:00,
2013-05-30 16:40:00,72.7,63.5,29.80,NE,34,1.0,3.0,73,0.00,,,0.00,Wunderground v.1.15,2013-05-30 21:40:00,
2013-05-30 16:46:00,71.6,62.9,29.80,NNE,27,2.0,3.0,74,0.00,,,0.00,Wunderground v.1.15,2013-05-30 21:46:00,
2013-05-30 16:52:00,72.0,64.0,29.79,NE,37,1.0,3.0,76,0.00,,,0.00,Wunderground v.1.15,2013-05-30 21:52:00,
2013-05-30 16:58:00,72.6,64.2,29.79,NE,40,1.0,3.0,75,0.00,,,0.00,Wunderground v.1.15,2013-05-30 21:58:00,
2013-05-30 17:04:00,72.8,64.4,29.79,NNW,340,1.0,4.0,75,0.00,,,0.00,Wunderground v.1.15,2013-05-30 22:04:00,
2013-05-30 17:10:00,73.2,64.4,29.79,NNE,26,1.0,1.0,74,0.00,,,0.00,Wunderground v.1.15,2013-05-30 22:10:00,
2013-05-30 17:16:00,73.4,65.0,29.78,NNE,16,0.0,1.0,75,0.00,,,0.00,Wunderground v.1.15,2013-05-30 22:16:00,
2013-05-30 17:22:00,74.3,65.9,29.78,NNE,33,0.0,1.0,75,0.00,,,0.00,Wunderground v.1.15,2013-05-30 22:22:00,
2013-05-30 17:28:00,74.6,65.8,29.79,ENE,65,1.0,1.0,74,0.00,,,0.00,Wunderground v.1.15,2013-05-30 22:28:00,
2013-05-30 17:34:00,74.7,66.2,29.78,NE,48,1.0,2.0,75,0.00,,,0.00,Wunderground v.1.15,2013-05-30 22:34:00,
2013-05-30 17:40:00,74.8,66.0,29.79,NE,45,1.0,1.0,74,0.00,,,0.00,Wunderground v.1.15,2013-05-30 22:40:00,
2013-05-30 17:46:00,75.6,66.7,29.79,SSE,148,0.0,1.0,74,0.00,,,0.00,Wunderground v.1.15,2013-05-30 22:46:00,
2013-05-30 17:52:00,76.4,67.9,29.78,ENE,75,0.0,2.0,75,0.00,,,0.00,Wunderground v.1.15,2013-05-30 22:52:00,
2013-05-30 17:58:00,77.2,68.7,29.78,ENE,78,1.0,4.0,75,0.00,,,0.00,Wunderground v.1.15,2013-05-30 22:58:00,
2013-05-30 18:04:00,77.7,69.1,29.78,East,79,1.0,3.0,75,0.00,,,0.00,Wunderground v.1.15,2013-05-30 23:04:00,
2013-05-30 18:10:00,77.7,69.1,29.79,ENE,78,1.0,3.0,75,0.00,,,0.00,Wunderground v.1.15,2013-05-30 23:10:00,
2013-05-30 18:16:00,77.4,69.2,29.78,SE,146,0.0,1.0,76,0.00,,,0.00,Wunderground v.1.15,2013-05-30 23:16:00,
2013-05-30 18:22:00,77.4,69.6,29.78,SE,129,0.0,2.0,77,0.00,,,0.00,Wunderground v.1.15,2013-05-30 23:22:00,
2013-05-30 18:28:00,77.4,69.6,29.78,SE,139,1.0,2.0,77,0.00,,,0.00,Wunderground v.1.15,2013-05-30 23:28:00,
2013-05-30 18:34:00,77.4,69.6,29.77,SSE,155,1.0,2.0,77,0.00,,,0.00,Wunderground v.1.15,2013-05-30 23:34:00,
2013-05-30 18:40:00,77.0,68.9,29.78,SE,139,1.0,2.0,76,0.00,,,0.00,Wunderground v.1.15,2013-05-30 23:40:00,
2013-05-30 18:46:00,76.6,68.8,29.78,SSE,155,1.0,1.0,77,0.00,,,0.00,Wunderground v.1.15,2013-05-30 23:46:00,
2013-05-30 18:52:00,76.3,68.9,29.78,SE,129,1.0,1.0,78,0.00,,,0.00,Wunderground v.1.15,2013-05-30 23:52:00,
2013-05-30 18:58:00,76.3,68.9,29.78,SW,218,1.0,2.0,78,0.00,,,0.00,Wunderground v.1.15,2013-05-30 23:58:00,
2013-05-30 19:04:00,75.9,67.8,29.78,SE,134,1.0,3.0,76,0.00,,,0.00,Wunderground v.1.15,2013-05-31 00:04:00,
2013-05-30 19:10:00,76.3,68.2,29.78,SE,141,2.0,2.0,76,0.00,,,0.00,Wunderground v.1.15,2013-05-31 00:10:00,
2013-05-30 19:16:00,77.3,68.4,29.79,SE,141,1.0,2.0,74,0.00,,,0.00,Wunderground v.1.15,2013-05-31 00:16:00,
2013-05-30 19:22:00,77.9,67.7,29.79,SSE,160,1.0,3.0,71,0.00,,,0.00,Wunderground v.1.15,2013-05-31 00:22:00,
2013-05-30 19:28:00,78.1,67.5,29.79,South,176,2.0,3.0,70,0.00,,,0.00,Wunderground v.1.15,2013-05-31 00:28:00,
2013-05-30 19:34:00,77.8,67.2,29.79,SE,141,2.0,2.0,70,0.00,,,0.00,Wunderground v.1.15,2013-05-31 00:34:00,
2013-05-30 19:40:00,77.2,67.1,29.79,SE,129,1.0,1.0,71,0.00,,,0.00,Wunderground v.1.15,2013-05-31 00:40:00,
2013-05-30 19:46:00,76.8,67.1,29.79,SE,145,1.0,2.0,72,0.00,,,0.00,Wunderground v.1.15,2013-05-31 00:46:00,
2013-05-30 19:52:00,76.5,67.2,29.79,SE,134,1.0,1.0,73,0.00,,,0.00,Wunderground v.1.15,2013-05-31 00:52:00,
2013-05-30 19:58:00,76.2,67.3,29.79,SSE,150,1.0,3.0,74,0.00,,,0.00,Wunderground v.1.15,2013-05-31 00:58:00,
2013-05-30 20:04:00,75.9,67.4,29.80,SE,135,1.0,2.0,75,0.00,,,0.00,Wunderground v.1.15,2013-05-31 01:04:00,
2013-05-30 20:10:00,75.5,67.4,29.79,SE,141,1.0,1.0,76,0.00,,,0.00,Wunderground v.1.15,2013-05-31 01:10:00,
2013-05-30 20:16:00,75.3,67.2,29.79,SE,141,1.0,1.0,76,0.00,,,0.00,Wunderground v.1.15,2013-05-31 01:16:00,
2013-05-30 20:22:00,74.7,66.6,29.80,SE,129,0.0,1.0,76,0.00,,,0.00,Wunderground v.1.15,2013-05-31 01:22:00,
2013-05-30 20:28:00,74.4,67.1,29.79,SE,129,0.0,1.0,78,0.00,,,0.00,Wunderground v.1.15,2013-05-31 01:28:00,
2013-05-30 20:34:00,74.2,66.9,29.79,SE,129,1.0,1.0,78,0.00,,,0.00,Wunderground v.1.15,2013-05-31 01:34:00,
2013-05-30 20:40:00,73.6,66.7,29.78,SE,131,0.0,0.0,79,0.00,,,0.00,Wunderground v.1.15,2013-05-31 01:40:00,
2013-05-30 20:46:00,73.0,66.8,29.79,SE,139,0.0,2.0,81,0.00,,,0.00,Wunderground v.1.15,2013-05-31 01:46:00,
2013-05-30 20:52:00,72.6,66.8,29.80,SE,131,0.0,1.0,82,0.00,,,0.00,Wunderground v.1.15,2013-05-31 01:52:00,
2013-05-30 20:58:00,72.5,67.0,29.80,SE,139,1.0,2.0,83,0.00,,,0.00,Wunderground v.1.15,2013-05-31 01:58:00,
2013-05-30 21:04:00,72.6,67.1,29.80,SSE,155,1.0,1.0,83,0.00,,,0.00,Wunderground v.1.15,2013-05-31 02:04:00,
2013-05-30 21:10:00,72.9,67.4,29.81,SE,141,1.0,1.0,83,0.00,,,0.00,Wunderground v.1.15,2013-05-31 02:10:00,
2013-05-30 21:16:00,73.2,67.7,29.81,SE,141,1.0,1.0,83,0.00,,,0.00,Wunderground v.1.15,2013-05-31 02:16:00,
2013-05-30 21:22:00,73.4,67.9,29.81,SSE,148,1.0,1.0,83,0.00,,,0.00,Wunderground v.1.15,2013-05-31 02:22:00,
2013-05-30 21:28:00,73.5,68.0,29.80,SSE,149,1.0,3.0,83,0.00,,,0.00,Wunderground v.1.15,2013-05-31 02:28:00,
2013-05-30 21:34:00,73.6,68.1,29.80,SE,145,1.0,2.0,83,0.00,,,0.00,Wunderground v.1.15,2013-05-31 02:34:00,
2013-05-30 21:40:00,73.5,68.0,29.80,SE,135,1.0,1.0,83,0.00,,,0.00,Wunderground v.1.15,2013-05-31 02:40:00,
2013-05-30 21:46:00,73.1,67.3,29.80,SE,138,1.0,1.0,82,0.00,,,0.00,Wunderground v.1.15,2013-05-31 02:46:00,
2013-05-30 21:52:00,72.8,67.3,29.80,ESE,117,1.0,2.0,83,0.00,,,0.00,Wunderground v.1.15,2013-05-31 02:52:00,
2013-05-30 21:58:00,72.9,67.4,29.80,SE,129,1.0,2.0,83,0.00,,,0.00,Wunderground v.1.15,2013-05-31 02:58:00,
2013-05-30 22:04:00,73.1,67.6,29.80,SSW,205,2.0,4.0,83,0.00,,,0.00,Wunderground v.1.15,2013-05-31 03:04:00,
2013-05-30 22:10:00,73.2,67.4,29.80,South,181,2.0,2.0,82,0.00,,,0.00,Wunderground v.1.15,2013-05-31 03:10:00,
2013-05-30 22:16:00,73.3,67.5,29.80,SSE,148,1.0,3.0,82,0.00,,,0.00,Wunderground v.1.15,2013-05-31 03:16:00,
2013-05-30 22:22:00,73.3,67.1,29.80,SE,136,1.0,1.0,81,0.00,,,0.00,Wunderground v.1.15,2013-05-31 03:22:00,
2013-05-30 22:28:00,73.1,66.9,29.80,SE,139,1.0,2.0,81,0.00,,,0.00,Wunderground v.1.15,2013-05-31 03:28:00,
2013-05-30 22:34:00,72.9,67.1,29.80,SE,134,1.0,2.0,82,0.00,,,0.00,Wunderground v.1.15,2013-05-31 03:34:00,
2013-05-30 22:40:00,72.7,66.9,29.80,SSE,160,2.0,3.0,82,0.00,,,0.00,Wunderground v.1.15,2013-05-31 03:40:00,
2013-05-30 22:46:00,72.6,66.8,29.80,SE,139,2.0,3.0,82,0.00,,,0.00,Wunderground v.1.15,2013-05-31 03:46:00,
2013-05-30 22:52:00,72.4,66.6,29.80,SSE,167,2.0,2.0,82,0.00,,,0.00,Wunderground v.1.15,2013-05-31 03:52:00,
2013-05-30 22:58:00,72.3,66.8,29.81,SSE,155,1.0,3.0,83,0.00,,,0.00,Wunderground v.1.15,2013-05-31 03:58:00,
2013-05-30 23:02:00,72.3,67.2,29.83,West,274,1.0,2.0,84,0.00,,,0.00,Wunderground v.1.15,2013-05-31 04:02:00,
2013-05-30 23:04:00,72.4,67.3,29.84,SSW,212,1.0,2.0,84,0.00,,,0.00,Wunderground v.1.15,2013-05-31 04:04:00,
2013-05-30 23:10:00,72.4,66.9,29.83,SE,145,2.0,4.0,83,0.00,,,0.00,Wunderground v.1.15,2013-05-31 04:10:00,
2013-05-30 23:14:00,72.0,66.2,29.83,SE,143,2.0,2.0,82,0.00,,,0.00,Wunderground v.1.15,2013-05-31 04:14:00,
2013-05-30 23:18:00,71.6,65.8,29.83,SE,135,1.0,2.0,82,0.00,,,0.00,Wunderground v.1.15,2013-05-31 04:18:00,
2013-05-30 23:24:00,71.4,66.0,29.82,ESE,117,1.0,3.0,83,0.00,,,0.00,Wunderground v.1.15,2013-05-31 04:24:00,
2013-05-30 23:30:00,71.5,65.7,29.81,SE,129,2.0,3.0,82,0.00,,,0.00,Wunderground v.1.15,2013-05-31 04:30:00,
2013-05-30 23:34:00,71.3,65.5,29.81,ESE,108,3.0,3.0,82,0.00,,,0.00,Wunderground v.1.15,2013-05-31 04:34:00,
2013-05-30 23:40:00,70.9,65.5,29.82,SSE,166,2.0,6.0,83,0.00,,,0.00,Wunderground v.1.15,2013-05-31 04:40:00,
2013-05-30 23:46:00,70.4,65.3,29.82,SE,127,2.0,2.0,84,0.00,,,0.00,Wunderground v.1.15,2013-05-31 04:46:00,
2013-05-30 23:52:00,69.7,65.0,29.82,SSE,150,2.0,2.0,85,0.00,,,0.00,Wunderground v.1.15,2013-05-31 04:52:00,
2013-05-30 23:58:00,69.4,65.0,29.83,SE,136,2.0,4.0,86,0.00,,,0.00,Wunderground v.1.15,2013-05-31 04:58:00,